Αναφορές METAR από Ελληνικά Αεροδρόμια

Σε αυτή τη σελίδα, μπορείτε να παρακολουθείτε τις αναφορές METAR που προέρχονται από τα κυριότερα αεροδρόμια της Ελλάδας. Το περιεχόμενο αποκωδικοποιείται, οπτικοποιείται και γίνεται κατανοητό από τον καθένα με τη χρήση του όμορφου δίγλωσσου γραφικού περιβάλλοντος του meteothes.gr!

Η αρχική κωδικοποιημένη αναφορά, συμπεριλαμβάνεται επίσης στο κάτω μέρος. Σε όποια καθεστερεί η ενημέρωση, το προειδοποιητικό μήνυμα "Μη ενημερωμένο METAR!" εμφανίζεται στο πάνω μέρος της με κόκκινα γράμματα.

Εχουν προστεθεί επίσης δύο αεροδρόμια από γειτονικές χώρες, την Οχρίδα(ΠΓΔΜ) και την Σόφια(Βουλγαρία) για να ελέγχουμε την εξέλιξη των ψυχρών εισβολών από τα Βόρεια!

LGTS - Thessaloniki/Makedonia-Elev 7m
Απόσταση από meteothes.gr: Ν 13km
Ενημερώθηκε: 19/07/2019 00:20
Διάσπαρτα Nέφη
Διάσπαρτα Nέφη
 Ανεμος από ΑΝΑ
Ανεμος: ΑΝΑ 9 km/h
Θερμοκρασία: 23°C
Σημ. Δρόσου: 18°C
Υγρασία: 74%
Βαρόμετρο: 1013 hPa
Νέφωση: Διάσπαρτα Nέφη
Ορατότητα: 10 km
Λεπτομέρειες Νεφών: Διάσπαρτα Nέφη 762 m
2019/07/18 21:20 LGTS 182120Z 12005KT 9999 FEW025 23/18 Q1013 NOSIG
LGAV - Athens/Elef. Venizelos-Elev 94m
Απόσταση από meteothes.gr: ΝΝΑ 312km
Ενημερώθηκε: 19/07/2019 00:20
Αίθριος
Αίθριος
 Ανεμος από ΔΒΔ
Ανεμος: ΔΒΔ 2 km/h
Θερμοκρασία: 20°C
Σημ. Δρόσου: 11°C
Υγρασία: 56%
Βαρόμετρο: 1013 hPa
Συνθήκες: Αίθριος
Ορατότητα: πάνω από 10 km
2019/07/18 21:20 LGAV 182120Z 29001KT CAVOK 20/11 Q1013 NOSIG
 
LGAL - Alexandroupolis-Elev 3m
Απόσταση από meteothes.gr: Α 251km
Ενημερώθηκε: 18/07/2019 22:20
ΜΗ Ενημερωμένο METAR!
Διάσπαρτα Nέφη
Διάσπαρτα Nέφη
 Ανεμος από μεταβλητός
Ανεμος: μεταβλητός 6 km/h
Θερμοκρασία: 24°C
Σημ. Δρόσου: 19°C
Υγρασία: 74%
Βαρόμετρο: 1012 hPa
Νέφωση: Διάσπαρτα Nέφη
Ορατότητα: 10 km
Λεπτομέρειες Νεφών: Διάσπαρτα Nέφη 914 m
2019/07/18 19:20 LGAL 181920Z VRB03KT 9999 FEW030 24/19 Q1012
LGKV - Kavala/Crysoupolis-Elev 5m
Απόσταση από meteothes.gr: ΑΒΑ 144km
Ενημερώθηκε: 18/07/2019 23:20
Διάσπαρτα Nέφη
Διάσπαρτα Nέφη
 Ανεμος από ΔΒΔ
Ανεμος: ΔΒΔ 9 km/h
Θερμοκρασία: 24°C
Σημ. Δρόσου: 19°C
Υγρασία: 74%
Βαρόμετρο: 1012 hPa
Νέφωση: Διάσπαρτα Nέφη
Ορατότητα: 10 km
Λεπτομέρειες Νεφών: Διάσπαρτα Nέφη 914 m
2019/07/18 20:20 LGKV 182020Z 29005KT 9999 FEW030 24/19 Q1012
 
LGSK - Skiathos Island-Elev 15m
Απόσταση από meteothes.gr: ΝΝΑ 168km
Ενημερώθηκε: 18/07/2019 20:50
ΜΗ Ενημερωμένο METAR!
Αίθριος
Αίθριος
 Ανεμος από άπνοια
Ανεμος: άπνοια
Θερμοκρασία: 27°C
Δείκτη Δυσφορίας: 28°C
Σημ. Δρόσου: 18°C
Υγρασία: 58%
Βαρόμετρο: 1011 hPa
Συνθήκες: Αίθριος
Ορατότητα: πάνω από 10 km
2019/07/18 17:50 LGSK 181750Z 00000KT CAVOK 27/18 Q1011
LGLM - Limnos Island-Elev 5m
Απόσταση από meteothes.gr: ΑΝΑ 210km
Ενημερώθηκε: 18/07/2019 23:50
Διάσπαρτα Nέφη
Διάσπαρτα Nέφη
 Ανεμος από άπνοια
Ανεμος: άπνοια
Θερμοκρασία: 23°C
Σημ. Δρόσου: 18°C
Υγρασία: 74%
Βαρόμετρο: 1012 hPa
Νέφωση: Διάσπαρτα Nέφη
Ορατότητα: 10 km
Λεπτομέρειες Νεφών: Διάσπαρτα Nέφη 610 m
2019/07/18 20:50 LGLM 182050Z 00000KT 9999 FEW020 23/18 Q1012
 
LGMT - Mitilini Island-Elev 17m
Απόσταση από meteothes.gr: ΑΝΑ 358km
Ενημερώθηκε: 18/07/2019 22:50
ΜΗ Ενημερωμένο METAR!
Αίθριος
Αίθριος
 Ανεμος από ΒΒΔ
Ανεμος: ΒΒΔ 13 km/h
Θερμοκρασία: 25°C
Σημ. Δρόσου: 16°C
Υγρασία: 57%
Βαρόμετρο: 1011 hPa
Συνθήκες: Αίθριος
Ορατότητα: πάνω από 10 km
2019/07/18 19:50 LGMT 181950Z 34007KT 300V020 CAVOK 25/16 Q1011
LGSY - Skiros Island-Elev 15m
Απόσταση από meteothes.gr: ΝΑ 227km
Ενημερώθηκε: 19/07/2019 00:20

 Ανεμος από μεταβλητός
Ανεμος: μεταβλητός 6 km/h
Θερμοκρασία: 20°C
Σημ. Δρόσου: 14°C
Υγρασία: 69%
Βαρόμετρο: 1012 hPa
2019/07/18 21:20 LGSY 182120Z AUTO VRB03KT //// // ////// 20/14 Q1012 RE//
 
LGKZ - Kozani-Elev 628m
Απόσταση από meteothes.gr: ΔΝΔ 102km
Ενημερώθηκε: 19/07/2019 00:20

 Ανεμος από Β
Ανεμος: Β 7 km/h
Θερμοκρασία: 17°C
Σημ. Δρόσου: 13°C
Υγρασία: 77%
Βαρόμετρο: 1016 hPa
2019/07/18 21:20 LGKZ 182120Z AUTO 36004KT //// // ////// 17/13 Q1016 RE//
LGIO - Ioannina-Elev 476m
Απόσταση από meteothes.gr: ΔΝΔ 209km
Ενημερώθηκε: 18/07/2019 21:50
ΜΗ Ενημερωμένο METAR!
Διάσπαρτα Nέφη
Διάσπαρτα Nέφη
 Ανεμος από μεταβλητός
Ανεμος: μεταβλητός 0 km/h
Θερμοκρασία: 23°C
Σημ. Δρόσου: 12°C
Υγρασία: 50%
Βαρόμετρο: 1014 hPa
Νέφωση: Διάσπαρτα Nέφη
Ορατότητα: 10 km
Λεπτομέρειες Νεφών: Διάσπαρτα Nέφη 1067 m
2019/07/18 18:50 LGIO 181850Z /////KT 9999 FEW035 23/12 Q1014
 
LGZA - Zakinthos-Elev 3m
Απόσταση από meteothes.gr: ΝΝΔ 367km
Ενημερώθηκε: 18/07/2019 22:20
ΜΗ Ενημερωμένο METAR!
Αίθριος
Αίθριος
 Ανεμος από μεταβλητός
Ανεμος: μεταβλητός 4 km/h
Θερμοκρασία: 25°C
Σημ. Δρόσου: 18°C
Υγρασία: 65%
Βαρόμετρο: 1013 hPa
Συνθήκες: Αίθριος
Ορατότητα: πάνω από 10 km
2019/07/18 19:20 LGZA 181920Z VRB02KT CAVOK 25/18 Q1013
LGKR - Corfu Island-Elev 2m
Απόσταση από meteothes.gr: ΔΝΔ 282km
Ενημερώθηκε: 19/07/2019 00:20
Αίθριος
Αίθριος
 Ανεμος από άπνοια
Ανεμος: άπνοια
Θερμοκρασία: 22°C
Σημ. Δρόσου: 17°C
Υγρασία: 73%
Βαρόμετρο: 1013 hPa
Συνθήκες: Αίθριος
Ορατότητα: πάνω από 10 km
2019/07/18 21:20 LGKR 182120Z 00000KT CAVOK 22/17 Q1013 NOSIG
 
LGSO - Syros Island-Elev 72m
Απόσταση από meteothes.gr: ΝΝΑ 397km
Ενημερώθηκε: 19/07/2019 00:20

 Ανεμος από ΒΔ
Ανεμος: ΒΔ 19 km/h
Θερμοκρασία: 25°C
Σημ. Δρόσου: 10°C
Υγρασία: 39%
Βαρόμετρο: 1012 hPa
2019/07/18 21:20 LGSO 182120Z AUTO 31010KT //// // ////// 25/10 Q1012 RE//
LGMK - Mikonos Island-Elev 123m
Απόσταση από meteothes.gr: ΝΝΑ 412km
Ενημερώθηκε: 19/07/2019 00:20
Αίθριος
Αίθριος
 Ανεμος από Β
Ανεμος: Β 17 km/h
Θερμοκρασία: 23°C
Σημ. Δρόσου: 14°C
Υγρασία: 57%
Βαρόμετρο: 1011 hPa
Συνθήκες: Αίθριος
Ορατότητα: πάνω από 10 km
2019/07/18 21:20 LGMK 182120Z 36009KT CAVOK 23/14 Q1011
 
LGSR - Santorini Island-Elev 40m
Απόσταση από meteothes.gr: ΝΝΑ 520km
Ενημερώθηκε: 19/07/2019 00:20
Αίθριος
Αίθριος
 Ανεμος από ΔΒΔ
Ανεμος: ΔΒΔ 15 km/h
Θερμοκρασία: 24°C
Σημ. Δρόσου: 14°C
Υγρασία: 54%
Βαρόμετρο: 1011 hPa
Συνθήκες: Αίθριος
Ορατότητα: πάνω από 10 km
2019/07/18 21:20 LGSR 182120Z 30008KT CAVOK 24/14 Q1011
LGKL - Kalamata-Elev 8m
Απόσταση από meteothes.gr: Ν 405km
Ενημερώθηκε: 19/07/2019 00:20
Αίθριος
Αίθριος
 Ανεμος από άπνοια
Ανεμος: άπνοια
Θερμοκρασία: 19°C
Σημ. Δρόσου: 15°C
Υγρασία: 78%
Βαρόμετρο: 1013 hPa
Συνθήκες: Αίθριος
Ορατότητα: πάνω από 10 km
2019/07/18 21:20 LGKL 182120Z 00000KT CAVOK 19/15 Q1013
 
LGIR - Iraklion/Crete-Elev 5m
Απόσταση από meteothes.gr: ΝΝΑ 622km
Ενημερώθηκε: 19/07/2019 00:20
Αίθριος
Αίθριος
 Ανεμος από ΒΔ
Ανεμος: ΒΔ 11 km/h
Θερμοκρασία: 25°C
Σημ. Δρόσου: 15°C
Υγρασία: 54%
Βαρόμετρο: 1012 hPa
Συνθήκες: Αίθριος
Ορατότητα: πάνω από 10 km
2019/07/18 21:20 LGIR 182120Z 31006KT CAVOK 25/15 Q1012 NOSIG
LGRP - Rhodes-Elev 5m
Απόσταση από meteothes.gr: ΝΑ 649km
Ενημερώθηκε: 19/07/2019 00:20
Αίθριος
Αίθριος
 Ανεμος από ΝΔ
Ανεμος: ΝΔ 19 km/h
Θερμοκρασία: 25°C
Σημ. Δρόσου: 19°C
Υγρασία: 69%
Βαρόμετρο: 1008 hPa
Συνθήκες: Αίθριος
Ορατότητα: πάνω από 10 km
2019/07/18 21:20 LGRP 182120Z 23010KT CAVOK 25/19 Q1008 NOSIG
 
LWOH - Ohrid/FYROM-Elev 761m
Απόσταση από meteothes.gr: ΔΒΔ 188km
Ενημερώθηκε: 18/07/2019 22:00
ΜΗ Ενημερωμένο METAR!
Διάσπαρτα Nέφη
Διάσπαρτα Nέφη
 Ανεμος από ΑΒΑ
Ανεμος: ΑΒΑ 7 km/h
Θερμοκρασία: 20°C
Σημ. Δρόσου: 12°C
Υγρασία: 60%
Βαρόμετρο: 1015 hPa
Νέφωση: Διάσπαρτα Nέφη
Ορατότητα: 10 km
Λεπτομέρειες Νεφών: Διάσπαρτα Nέφη 1219 m
2019/07/18 19:00 LWOH 181900Z 06004KT 9999 FEW040 20/12 Q1015
LBSF - Sofia/Bulgaria-Elev 595m
Απόσταση από meteothes.gr: Β 227km
Ενημερώθηκε: 19/07/2019 00:30
Αίθριος
Αίθριος
 Ανεμος από ΝΑ
Ανεμος: ΝΑ 6 km/h
Θερμοκρασία: 17°C
Σημ. Δρόσου: 12°C
Υγρασία: 73%
Βαρόμετρο: 1016 hPa
Συνθήκες: Αίθριος
Ορατότητα: πάνω από 10 km
2019/07/18 21:30 LBSF 182130Z 13003KT CAVOK 17/12 Q1016 NOSIG

(*) Μερικές αναφορές παρουσιάζουν λιγότερα στοιχεία γιατί οι αρχικές είναι ελλιπείς ή έχουν λάθος μορφοποίηση!

Please disable your adblock and script blockers to view this page